createdAt,value
2023-08-25T00:00:11.588Z,97783.53
2023-08-25T00:02:39.738Z,97767.16
2023-08-25T00:05:08.460Z,97772.38
2023-08-25T00:07:36.614Z,97762.38
2023-08-25T00:10:05.082Z,97735.84
2023-08-25T00:12:33.082Z,97751.09
2023-08-25T00:15:02.614Z,97752.63
2023-08-25T00:17:30.743Z,97743.16
2023-08-25T00:19:59.124Z,97748.78
2023-08-25T00:22:27.504Z,97754.22
2023-08-25T00:24:57.425Z,97755.78
2023-08-25T00:27:25.480Z,97751.81
2023-08-25T00:29:54.407Z,97752.63
2023-08-25T00:32:24.059Z,97750.22
2023-08-25T00:34:52.603Z,97738.72
2023-08-25T00:37:20.905Z,97745.00
2023-08-25T00:39:49.143Z,97739.78
2023-08-25T00:42:17.058Z,97742.41
2023-08-25T00:44:45.071Z,97741.91
2023-08-25T00:47:13.889Z,97744.94
2023-08-25T00:49:44.158Z,97736.56
2023-08-25T00:52:13.277Z,97746.78
2023-08-25T00:54:42.259Z,97731.63
2023-08-25T00:57:10.381Z,97751.19
2023-08-25T00:59:39.083Z,97746.91
2023-08-25T01:02:07.509Z,97738.34
2023-08-25T01:04:35.920Z,97726.41
2023-08-25T01:07:05.819Z,97737.38
2023-08-25T01:09:34.966Z,97736.56
2023-08-25T01:12:06.219Z,97743.25
2023-08-25T01:14:43.676Z,97738.25
2023-08-25T01:17:15.955Z,97730.44
2023-08-25T01:19:53.592Z,97733.34
2023-08-25T01:22:29.737Z,97733.34
2023-08-25T01:25:05.502Z,97730.38
2023-08-25T01:27:36.257Z,97733.72
2023-08-25T01:30:04.294Z,97731.00
2023-08-25T01:32:32.369Z,97721.63
2023-08-25T01:35:00.802Z,97722.84
2023-08-25T01:37:33.465Z,97718.50
2023-08-25T01:40:09.635Z,97715.56
2023-08-25T01:42:42.062Z,97719.41
2023-08-25T01:45:11.076Z,97713.91
2023-08-25T01:47:40.584Z,97729.13
2023-08-25T01:50:12.482Z,97731.63
2023-08-25T01:52:41.053Z,97732.88
2023-08-25T01:55:12.688Z,97723.56
2023-08-25T01:57:42.140Z,97735.34
2023-08-25T02:00:10.889Z,97731.28
2023-08-25T02:02:38.890Z,97741.81
2023-08-25T02:05:07.921Z,97740.13
2023-08-25T02:07:36.468Z,97736.81
2023-08-25T02:10:04.666Z,97733.66
2023-08-25T02:12:32.733Z,97740.34
2023-08-25T02:15:02.301Z,97721.22
2023-08-25T02:17:30.381Z,97716.97
2023-08-25T02:19:58.909Z,97738.88
2023-08-25T02:22:26.977Z,97725.72
2023-08-25T02:24:55.031Z,97737.09
2023-08-25T02:27:23.314Z,97735.13
2023-08-25T02:29:51.266Z,97742.03
2023-08-25T02:32:20.863Z,97745.66
2023-08-25T02:34:49.263Z,97733.84
2023-08-25T02:37:17.540Z,97733.03
2023-08-25T02:39:45.616Z,97751.72
2023-08-25T02:42:14.592Z,97733.34
2023-08-25T02:44:42.739Z,97739.72
2023-08-25T02:47:11.331Z,97736.59
2023-08-25T02:49:41.201Z,97736.59
2023-08-25T02:52:09.486Z,97728.66
2023-08-25T02:54:38.860Z,97724.47
2023-08-25T02:57:07.208Z,97721.16
2023-08-25T02:59:35.261Z,97727.19
2023-08-25T03:02:03.509Z,97725.59
2023-08-25T03:04:31.564Z,97721.34
2023-08-25T03:07:02.657Z,97710.91
2023-08-25T03:09:31.101Z,97708.38
2023-08-25T03:11:59.851Z,97714.34
2023-08-25T03:14:29.422Z,97716.97
2023-08-25T03:16:59.820Z,97693.19
2023-08-25T03:19:28.152Z,97707.38
2023-08-25T03:21:56.563Z,97701.31
2023-08-25T03:24:26.387Z,97690.34
2023-08-25T03:26:55.025Z,97702.25
2023-08-25T03:29:23.159Z,97701.53
2023-08-25T03:31:51.341Z,97690.66
2023-08-25T03:34:20.259Z,97699.84
2023-08-25T03:36:48.505Z,97707.75
2023-08-25T03:39:16.534Z,97711.75
2023-08-25T03:41:46.032Z,97701.63
2023-08-25T03:44:14.455Z,97708.38
2023-08-25T03:46:42.700Z,97714.97
2023-08-25T03:49:12.002Z,97710.81
2023-08-25T03:51:40.305Z,97708.19
2023-08-25T03:54:08.650Z,97713.97
2023-08-25T03:56:37.201Z,97711.00
2023-08-25T03:59:07.000Z,97714.78
2023-08-25T04:01:35.894Z,97708.81
2023-08-25T04:04:04.087Z,97706.34
2023-08-25T04:06:32.254Z,97695.28
2023-08-25T04:09:00.958Z,97706.13
2023-08-25T04:11:28.954Z,97696.53
2023-08-25T04:13:57.143Z,97698.31
2023-08-25T04:16:26.892Z,97690.69
2023-08-25T04:18:54.975Z,97692.34
2023-08-25T04:21:23.078Z,97696.41
2023-08-25T04:23:51.064Z,97696.34
2023-08-25T04:26:19.651Z,97705.81
2023-08-25T04:28:48.454Z,97698.31
2023-08-25T04:31:16.972Z,97710.94
2023-08-25T04:33:46.608Z,97708.53
2023-08-25T04:36:14.901Z,97705.72
2023-08-25T04:38:42.948Z,97702.38
2023-08-25T04:41:11.111Z,97704.91
2023-08-25T04:43:39.384Z,97673.47
2023-08-25T04:46:09.289Z,97683.38
2023-08-25T04:48:38.741Z,97693.00
2023-08-25T04:51:10.631Z,97689.25
2023-08-25T04:53:39.515Z,97684.56
2023-08-25T04:56:07.746Z,97676.53
2023-08-25T04:58:36.958Z,97665.91
2023-08-25T05:01:05.938Z,97668.00
2023-08-25T05:03:34.213Z,97654.03
2023-08-25T05:06:02.979Z,97661.13
2023-08-25T05:08:32.617Z,97662.97
2023-08-25T05:11:01.689Z,97660.91
2023-08-25T05:13:29.891Z,97663.50
2023-08-25T05:15:58.201Z,97660.56
2023-08-25T05:18:26.458Z,97658.28
2023-08-25T05:21:00.949Z,97661.41
2023-08-25T05:23:29.461Z,97652.84
2023-08-25T05:25:59.137Z,97635.22
2023-08-25T05:28:28.269Z,97634.13
2023-08-25T05:30:56.692Z,97639.84
2023-08-25T05:33:24.723Z,97635.97
2023-08-25T05:35:52.990Z,97638.97
2023-08-25T05:38:22.176Z,97635.94
2023-08-25T05:40:50.381Z,97633.72
2023-08-25T05:43:20.044Z,97634.69
2023-08-25T05:45:48.207Z,97624.09
2023-08-25T05:48:16.457Z,97625.09
2023-08-25T05:50:44.522Z,97625.41
2023-08-25T05:53:12.658Z,97625.88
2023-08-25T05:55:41.045Z,97612.59
2023-08-25T05:58:12.506Z,97616.94
2023-08-25T06:00:41.942Z,97613.91
2023-08-25T06:03:10.619Z,97615.47
2023-08-25T06:05:38.724Z,97613.59
2023-08-25T06:08:07.375Z,97602.56
2023-08-25T06:10:36.316Z,97604.47
2023-08-25T06:13:04.826Z,97596.16
2023-08-25T06:15:32.939Z,97605.44
2023-08-25T06:18:02.341Z,97597.81
2023-08-25T06:20:31.883Z,97587.13
2023-08-25T06:22:59.996Z,97578.69
2023-08-25T06:25:28.104Z,97578.22
2023-08-25T06:27:56.596Z,97575.28
2023-08-25T06:30:25.193Z,97575.88
2023-08-25T06:32:53.783Z,97577.00
2023-08-25T06:35:23.664Z,97585.47
2023-08-25T06:37:52.064Z,97589.03
2023-08-25T06:40:21.309Z,97594.84
2023-08-25T06:42:50.189Z,97584.97
2023-08-25T06:45:18.723Z,97595.41
2023-08-25T06:47:47.450Z,97582.50
2023-08-25T06:50:16.074Z,97585.59
2023-08-25T06:52:45.480Z,97585.09
2023-08-25T06:55:14.022Z,97578.72
2023-08-25T06:57:42.196Z,97570.03
2023-08-25T07:00:13.311Z,97586.63
2023-08-25T07:02:43.042Z,97569.84
2023-08-25T07:05:11.759Z,97566.34
2023-08-25T07:07:39.840Z,97561.94
2023-08-25T07:10:10.608Z,97543.63
2023-08-25T07:12:38.974Z,97543.13
2023-08-25T07:15:08.199Z,97546.19
2023-08-25T07:17:36.742Z,97543.47
2023-08-25T07:20:06.434Z,97540.78
2023-08-25T07:22:34.863Z,97548.66
2023-08-25T07:25:03.672Z,97557.59
2023-08-25T07:27:33.209Z,97554.84
2023-08-25T07:30:01.723Z,97571.47
2023-08-25T07:32:30.061Z,97576.06
2023-08-25T07:34:58.566Z,97596.50
2023-08-25T07:37:27.472Z,97615.50
2023-08-25T07:39:57.406Z,97641.22
2023-08-25T07:42:25.316Z,97642.00
2023-08-25T07:44:54.976Z,97652.75
2023-08-25T07:47:23.548Z,97658.31
2023-08-25T07:49:52.114Z,97672.84
2023-08-25T07:52:20.617Z,97676.25
2023-08-25T07:54:48.827Z,97680.22
2023-08-25T07:57:17.934Z,97667.78
2023-08-25T07:59:46.314Z,97682.06
2023-08-25T08:02:16.361Z,97705.19
2023-08-25T08:04:45.200Z,97710.69
2023-08-25T08:07:13.537Z,97708.38
2023-08-25T08:09:41.738Z,97718.25
2023-08-25T08:12:10.678Z,97708.97
2023-08-25T08:14:45.759Z,97730.78
2023-08-25T08:17:16.684Z,97718.84
2023-08-25T08:19:46.240Z,97722.91
2023-08-25T08:22:14.567Z,97709.63
2023-08-25T08:24:50.736Z,97711.28
2023-08-25T08:27:20.397Z,97732.41
2023-08-25T08:29:49.525Z,97731.47
2023-08-25T08:32:19.211Z,97756.81
2023-08-25T08:34:48.563Z,97753.03
2023-08-25T08:37:16.633Z,97758.81
2023-08-25T08:39:45.525Z,97775.97
2023-08-25T08:42:15.861Z,97778.22
2023-08-25T08:44:48.224Z,97779.94
2023-08-25T08:47:19.168Z,97788.25
2023-08-25T08:49:48.133Z,97792.78
2023-08-25T08:52:18.068Z,97803.22
2023-08-25T08:54:46.807Z,97800.22
2023-08-25T08:57:16.532Z,97802.16
2023-08-25T08:59:45.172Z,97796.97
2023-08-25T09:02:16.393Z,97778.31
2023-08-25T09:04:47.598Z,97782.75
2023-08-25T09:07:16.168Z,97792.53
2023-08-25T09:09:49.155Z,97773.94
2023-08-25T09:12:20.020Z,97779.25
2023-08-25T09:14:48.667Z,97789.53
2023-08-25T09:17:17.206Z,97791.78
2023-08-25T09:19:46.654Z,97799.31
2023-08-25T09:22:19.138Z,97798.41
2023-08-25T09:24:47.827Z,97789.41
2023-08-25T09:27:33.847Z,97798.28
2023-08-25T09:30:05.544Z,97780.91
2023-08-25T09:32:34.535Z,97745.88
2023-08-25T09:35:14.699Z,97739.16
2023-08-25T09:37:43.436Z,97748.28
2023-08-25T09:40:14.257Z,97739.84
2023-08-25T09:42:42.326Z,97748.78
2023-08-25T09:45:11.436Z,97755.22
2023-08-25T09:47:39.677Z,97754.28
2023-08-25T09:50:09.282Z,97768.88
2023-08-25T09:52:41.587Z,97798.91
2023-08-25T09:55:11.978Z,97783.69
2023-08-25T09:57:41.037Z,97777.72
2023-08-25T10:00:11.403Z,97761.66
2023-08-25T10:02:39.986Z,97751.41
2023-08-25T10:05:11.625Z,97761.22
2023-08-25T10:07:43.143Z,97750.97
2023-08-25T10:10:12.763Z,97774.69
2023-08-25T10:12:46.188Z,97794.50
2023-08-25T10:15:17.114Z,97800.22
2023-08-25T10:17:50.252Z,97781.38
2023-08-25T10:20:19.595Z,97765.97
2023-08-25T10:22:50.778Z,97753.97
2023-08-25T10:25:21.027Z,97731.13
2023-08-25T10:27:49.913Z,97746.13
2023-08-25T10:30:18.567Z,97753.50
2023-08-25T10:33:02.519Z,97751.69
2023-08-25T10:35:44.760Z,97736.47
2023-08-25T10:38:40.793Z,97736.84
2023-08-25T10:41:21.510Z,97747.91
2023-08-25T10:43:53.955Z,97750.16
2023-08-25T10:46:32.390Z,97738.97
2023-08-25T10:49:14.075Z,97718.00
2023-08-25T10:51:42.884Z,97686.69
2023-08-25T10:54:25.186Z,97693.25
2023-08-25T10:56:54.169Z,97712.75
2023-08-25T10:59:23.683Z,97728.34
2023-08-25T11:02:00.997Z,97749.75
2023-08-25T11:04:31.631Z,97739.59
2023-08-25T11:07:01.007Z,97736.50
2023-08-25T11:09:36.922Z,97725.22
2023-08-25T11:12:09.948Z,97708.81
2023-08-25T11:14:40.094Z,97703.47
2023-08-25T11:17:10.234Z,97718.53
2023-08-25T11:19:41.376Z,97733.19
2023-08-25T11:22:13.485Z,97721.88
2023-08-25T11:24:43.284Z,97706.50
2023-08-25T11:27:16.424Z,97696.28
2023-08-25T11:29:46.964Z,97716.88
2023-08-25T11:32:15.541Z,97724.78
2023-08-25T11:34:44.633Z,97718.84
2023-08-25T11:37:14.579Z,97709.97
2023-08-25T11:39:47.747Z,97718.78
2023-08-25T11:42:22.267Z,97722.78
2023-08-25T11:44:51.457Z,97729.09
2023-08-25T11:47:20.838Z,97731.84
2023-08-25T11:49:50.180Z,97741.06
2023-08-25T11:52:18.440Z,97724.06
2023-08-25T11:54:48.802Z,97701.47
2023-08-25T11:57:17.239Z,97711.03
2023-08-25T11:59:48.170Z,97715.59
2023-08-25T12:02:17.811Z,97710.88
2023-08-25T12:04:59.603Z,97709.47
2023-08-25T12:07:30.147Z,97706.03
2023-08-25T12:10:02.307Z,97708.22
2023-08-25T12:12:34.216Z,97694.13
2023-08-25T12:15:02.261Z,97703.78
2023-08-25T12:17:31.363Z,97696.91
2023-08-25T12:20:00.557Z,97688.16
2023-08-25T12:22:29.177Z,97688.59
2023-08-25T12:24:57.591Z,97683.47
2023-08-25T12:27:27.290Z,97691.34
2023-08-25T12:29:55.753Z,97691.47
2023-08-25T12:32:24.391Z,97695.06
2023-08-25T12:34:52.596Z,97688.69
2023-08-25T12:37:21.368Z,97683.34
2023-08-25T12:39:51.945Z,97662.78
2023-08-25T12:42:21.069Z,97673.47
2023-08-25T12:44:50.465Z,97678.53
2023-08-25T12:47:18.772Z,97675.16
2023-08-25T12:49:47.123Z,97642.16
2023-08-25T12:52:17.993Z,97657.53
2023-08-25T12:54:46.808Z,97647.63
2023-08-25T12:57:15.396Z,97651.91
2023-08-25T12:59:43.990Z,97651.72
2023-08-25T13:02:15.563Z,97646.84
2023-08-25T13:04:43.828Z,97649.03
2023-08-25T13:07:13.913Z,97644.13
2023-08-25T13:09:42.883Z,97641.34
2023-08-25T13:12:11.784Z,97643.16
2023-08-25T13:14:40.679Z,97646.75
2023-08-25T13:17:08.858Z,97652.00
2023-08-25T13:19:39.902Z,97654.59
2023-08-25T13:22:09.053Z,97653.00
2023-08-25T13:24:37.384Z,97644.03
2023-08-25T13:27:06.511Z,97645.44
2023-08-25T13:29:34.818Z,97646.16
2023-08-25T13:32:03.178Z,97655.09
2023-08-25T13:34:31.274Z,97643.00
2023-08-25T13:37:00.876Z,97653.78
2023-08-25T13:39:29.033Z,97662.66
2023-08-25T13:41:57.109Z,97654.94
2023-08-25T13:44:25.174Z,97663.84
2023-08-25T13:46:53.427Z,97651.50
2023-08-25T13:49:21.793Z,97648.38
2023-08-25T13:51:49.937Z,97646.38
2023-08-25T13:54:20.209Z,97641.88
2023-08-25T13:56:48.730Z,97643.31
2023-08-25T13:59:17.327Z,97647.69
2023-08-25T14:01:45.386Z,97638.56
2023-08-25T14:04:13.782Z,97628.47
2023-08-25T14:06:42.123Z,97633.50
2023-08-25T14:09:10.398Z,97621.06
2023-08-25T14:11:40.058Z,97621.50
2023-08-25T14:14:10.397Z,97615.13
2023-08-25T14:16:38.679Z,97615.72
2023-08-25T14:19:08.183Z,97608.81
2023-08-25T14:21:36.452Z,97621.38
2023-08-25T14:24:05.146Z,97609.75
2023-08-25T14:26:33.344Z,97593.72
2023-08-25T14:29:04.207Z,97583.47
2023-08-25T14:31:32.283Z,97591.03
2023-08-25T14:34:00.644Z,97610.28
2023-08-25T14:36:29.950Z,97617.81
2023-08-25T14:38:59.052Z,97628.91
2023-08-25T14:41:27.386Z,97627.66
2023-08-25T14:43:55.454Z,97625.44
2023-08-25T14:46:27.784Z,97628.16
2023-08-25T14:48:56.858Z,97639.22
2023-08-25T14:51:25.086Z,97636.38
2023-08-25T14:53:54.668Z,97641.56
2023-08-25T14:56:22.937Z,97630.03
2023-08-25T14:58:50.954Z,97620.50
2023-08-25T15:01:19.865Z,97623.31
2023-08-25T15:03:49.493Z,97619.16
2023-08-25T15:06:17.841Z,97614.31
2023-08-25T15:08:45.979Z,97625.53
2023-08-25T15:11:14.772Z,97621.50
2023-08-25T15:13:42.955Z,97614.44
2023-08-25T15:16:11.117Z,97622.41
2023-08-25T15:18:40.407Z,97615.13
2023-08-25T15:21:10.143Z,97602.84
2023-08-25T15:23:38.262Z,97606.84
2023-08-25T15:26:06.614Z,97610.06
2023-08-25T15:28:35.095Z,97598.63
2023-08-25T15:31:07.907Z,97594.94
2023-08-25T15:33:37.445Z,97582.97
2023-08-25T15:36:07.483Z,97583.19
2023-08-25T15:38:37.463Z,97579.19
2023-08-25T15:41:08.673Z,97574.81
2023-08-25T15:43:37.263Z,97580.91
2023-08-25T15:46:05.761Z,97568.25
2023-08-25T15:48:37.176Z,97568.19
2023-08-25T15:51:07.057Z,97563.06
2023-08-25T15:53:37.588Z,97553.97
2023-08-25T15:56:06.711Z,97542.50
2023-08-25T15:58:34.824Z,97551.75
2023-08-25T16:01:04.435Z,97544.97
2023-08-25T16:03:33.840Z,97541.44
2023-08-25T16:06:05.327Z,97533.94
2023-08-25T16:08:34.563Z,97528.53
2023-08-25T16:11:07.712Z,97514.84
2023-08-25T16:13:36.865Z,97539.31
2023-08-25T16:16:05.689Z,97534.38
2023-08-25T16:18:34.490Z,97542.75
2023-08-25T16:21:04.054Z,97537.22
2023-08-25T16:23:34.529Z,97531.28
2023-08-25T16:26:04.863Z,97526.13
2023-08-25T16:28:33.752Z,97531.66
2023-08-25T16:31:05.269Z,97513.59
2023-08-25T16:33:33.712Z,97515.06
2023-08-25T16:36:04.487Z,97519.38
2023-08-25T16:38:33.759Z,97515.09
2023-08-25T16:41:03.493Z,97511.91
2023-08-25T16:43:31.638Z,97506.16
2023-08-25T16:45:59.665Z,97502.28
2023-08-25T16:48:27.954Z,97510.06
2023-08-25T16:50:56.050Z,97502.94
2023-08-25T16:53:25.564Z,97506.00
2023-08-25T16:55:54.572Z,97500.69
2023-08-25T16:58:25.965Z,97509.63
2023-08-25T17:00:54.092Z,97499.66
2023-08-25T17:03:22.633Z,97499.66
2023-08-25T17:05:51.256Z,97487.06
2023-08-25T17:08:20.899Z,97476.19
2023-08-25T17:10:50.727Z,97466.13
2023-08-25T17:13:19.226Z,97472.06
2023-08-25T17:15:49.182Z,97471.34
2023-08-25T17:18:17.942Z,97476.75
2023-08-25T17:20:46.148Z,97477.44
2023-08-25T17:23:14.476Z,97483.38
2023-08-25T17:25:42.850Z,97490.88
2023-08-25T17:28:11.325Z,97487.47
2023-08-25T17:30:39.446Z,97495.50
2023-08-25T17:33:09.338Z,97496.25
2023-08-25T17:35:43.100Z,97506.81
2023-08-25T17:38:11.795Z,97506.88
2023-08-25T17:40:42.900Z,97507.88
2023-08-25T17:43:11.670Z,97513.88
2023-08-25T17:45:40.087Z,97514.28
2023-08-25T17:48:10.622Z,97514.47
2023-08-25T17:50:39.408Z,97493.72
2023-08-25T17:53:08.329Z,97514.75
2023-08-25T17:55:36.879Z,97508.13
2023-08-25T17:58:05.710Z,97514.19
2023-08-25T18:00:34.093Z,97521.69
2023-08-25T18:03:02.228Z,97539.53
2023-08-25T18:05:33.274Z,97537.59
2023-08-25T18:08:01.512Z,97545.06
2023-08-25T18:10:30.139Z,97545.34
2023-08-25T18:12:58.258Z,97548.50
2023-08-25T18:15:26.817Z,97554.31
2023-08-25T18:17:55.016Z,97562.06
2023-08-25T18:20:23.589Z,97558.06
2023-08-25T18:22:53.803Z,97556.03
2023-08-25T18:25:22.354Z,97567.66
2023-08-25T18:27:50.478Z,97568.31
2023-08-25T18:30:21.179Z,97582.69
2023-08-25T18:32:50.980Z,97575.50
2023-08-25T18:35:19.303Z,97574.34
2023-08-25T18:37:47.685Z,97577.78
2023-08-25T18:40:17.708Z,97573.47
2023-08-25T18:42:45.952Z,97582.81
2023-08-25T18:45:14.353Z,97570.59
2023-08-25T18:47:42.480Z,97572.81
2023-08-25T18:50:15.259Z,97578.63
2023-08-25T18:52:43.547Z,97582.44
2023-08-25T18:55:12.635Z,97579.22
2023-08-25T18:57:42.285Z,97593.44
2023-08-25T19:00:11.804Z,97595.50
2023-08-25T19:02:39.984Z,97595.03
2023-08-25T19:05:09.166Z,97585.63
2023-08-25T19:07:37.671Z,97581.75
2023-08-25T19:10:06.526Z,97570.47
2023-08-25T19:12:34.802Z,97576.56
2023-08-25T19:15:05.176Z,97580.56
2023-08-25T19:17:34.594Z,97578.09
2023-08-25T19:20:03.264Z,97593.13
2023-08-25T19:22:31.510Z,97593.50
2023-08-25T19:24:59.690Z,97575.56
2023-08-25T19:27:28.120Z,97584.94
2023-08-25T19:29:57.036Z,97579.00
2023-08-25T19:32:26.466Z,97584.09
2023-08-25T19:34:54.628Z,97567.09
2023-08-25T19:37:23.067Z,97567.53
2023-08-25T19:39:53.538Z,97572.94
2023-08-25T19:42:22.221Z,97560.31
2023-08-25T19:44:50.872Z,97571.72
2023-08-25T19:47:19.220Z,97570.88
2023-08-25T19:49:50.394Z,97582.31
2023-08-25T19:52:19.101Z,97566.16
2023-08-25T19:54:47.237Z,97562.81
2023-08-25T19:57:17.405Z,97540.84
2023-08-25T19:59:45.568Z,97549.53
2023-08-25T20:02:13.714Z,97550.09
2023-08-25T20:04:41.819Z,97543.19
2023-08-25T20:07:11.291Z,97541.50
2023-08-25T20:09:39.422Z,97537.25
2023-08-25T20:12:08.652Z,97540.94
2023-08-25T20:14:37.611Z,97535.13
2023-08-25T20:17:06.196Z,97529.88
2023-08-25T20:19:35.641Z,97529.31
2023-08-25T20:22:05.119Z,97520.56
2023-08-25T20:24:36.110Z,97531.47
2023-08-25T20:27:04.416Z,97527.44
2023-08-25T20:29:32.821Z,97512.00
2023-08-25T20:32:01.191Z,97543.66
2023-08-25T20:34:29.513Z,97538.78
2023-08-25T20:36:57.819Z,97538.78
2023-08-25T20:39:26.334Z,97539.28
2023-08-25T20:41:57.617Z,97533.72
2023-08-25T20:44:26.506Z,97549.66
2023-08-25T20:46:54.663Z,97560.47
2023-08-25T20:49:24.972Z,97558.00
2023-08-25T20:51:54.078Z,97547.78
2023-08-25T20:54:22.890Z,97550.25
2023-08-25T20:56:51.098Z,97558.00
2023-08-25T20:59:20.742Z,97553.59
2023-08-25T21:01:49.452Z,97557.09
2023-08-25T21:04:17.837Z,97564.69
2023-08-25T21:06:46.039Z,97569.22
2023-08-25T21:09:14.741Z,97570.66
2023-08-25T21:11:44.144Z,97575.91
2023-08-25T21:14:12.510Z,97571.41
2023-08-25T21:16:42.217Z,97580.66
2023-08-25T21:19:11.416Z,97579.00
2023-08-25T21:21:41.141Z,97577.59
2023-08-25T21:24:11.315Z,97584.72
2023-08-25T21:26:40.058Z,97595.09
2023-08-25T21:29:08.924Z,97594.28
2023-08-25T21:31:37.860Z,97596.53
2023-08-25T21:34:09.168Z,97582.84
2023-08-25T21:36:38.067Z,97581.88
2023-08-25T21:39:06.864Z,97595.78
2023-08-25T21:41:35.649Z,97588.53
2023-08-25T21:44:04.158Z,97567.22
2023-08-25T21:46:37.437Z,97527.56
2023-08-25T21:49:08.486Z,97528.63
2023-08-25T21:51:36.735Z,97537.75
2023-08-25T21:54:07.055Z,97555.72
2023-08-25T21:56:39.358Z,97591.88
2023-08-25T21:59:07.583Z,97606.50
2023-08-25T22:01:36.898Z,97613.28
2023-08-25T22:04:05.949Z,97615.38
2023-08-25T22:06:36.902Z,97634.38
2023-08-25T22:09:06.283Z,97648.72
2023-08-25T22:11:34.887Z,97653.25
2023-08-25T22:14:03.748Z,97648.25
2023-08-25T22:16:34.869Z,97656.78
2023-08-25T22:19:04.496Z,97659.75
2023-08-25T22:21:33.280Z,97647.75
2023-08-25T22:24:03.313Z,97653.91
2023-08-25T22:26:31.531Z,97668.28
2023-08-25T22:28:59.758Z,97676.13
2023-08-25T22:31:27.872Z,97683.97
2023-08-25T22:36:28.680Z,97707.19
2023-08-25T22:38:57.405Z,97718.25
2023-08-25T22:41:28.079Z,97722.19
2023-08-25T22:43:56.520Z,97710.88
2023-08-25T22:46:24.711Z,97715.41
2023-08-25T22:48:53.758Z,97733.94
2023-08-25T22:51:21.988Z,97739.13
2023-08-25T22:53:50.473Z,97732.72
2023-08-25T22:56:18.834Z,97708.44
2023-08-25T22:58:48.927Z,97699.19
2023-08-25T23:01:18.602Z,97702.44
2023-08-25T23:03:47.050Z,97691.34
2023-08-25T23:06:15.936Z,97663.03
2023-08-25T23:08:44.347Z,97604.28
2023-08-25T23:11:13.883Z,97624.69
2023-08-25T23:13:42.441Z,97621.16
2023-08-25T23:16:12.104Z,97615.44
2023-08-25T23:18:41.829Z,97608.41
2023-08-25T23:21:10.363Z,97578.97
2023-08-25T23:23:41.424Z,97585.25
2023-08-25T23:26:10.239Z,97560.09
2023-08-25T23:28:39.029Z,97532.25
2023-08-25T23:31:11.376Z,97549.63
2023-08-25T23:33:41.184Z,97542.97
2023-08-25T23:36:09.562Z,97545.56
2023-08-25T23:38:38.036Z,97537.13
2023-08-25T23:41:06.333Z,97531.53
2023-08-25T23:43:35.293Z,97526.31
2023-08-25T23:46:07.728Z,97523.47
2023-08-25T23:48:36.187Z,97514.94
2023-08-25T23:51:06.234Z,97516.59
2023-08-25T23:53:34.769Z,97524.28
2023-08-25T23:56:03.091Z,97521.09
2023-08-25T23:58:31.655Z,97505.75
